Time;durP1;ratioP1;P1;durP2;ratioP2;P2;SDS_P1;SDS_P2;PMS_P1;PMS_P2;Temp;Humidity;BMP_temperature;BMP_pressure;BME280_temperature;BME280_humidity;BME280_pressure;Samples;Min_cycle;Max_cycle;Signal;HPM_P1;HPM_P2
2022/10/02 00:00:27;;;;;;;6.00;0.33;;;10.70;99.90;;;;;;5052673;28;20411;-90
2022/10/02 00:02:59;;;;;;;8.33;0.40;;;10.70;99.90;;;;;;5035300;28;20495;-89
2022/10/02 00:05:36;;;;;;;8.10;0.67;;;10.70;99.90;;;;;;5052702;28;20176;-90
2022/10/02 00:08:13;;;;;;;5.30;0.50;;;10.70;99.90;;;;;;5051842;28;20865;-90
2022/10/02 00:11:08;;;;;;;7.13;1.17;;;10.70;99.90;;;;;;5053380;28;20413;-87
2022/10/02 00:13:41;;;;;;;6.37;0.60;;;10.70;99.90;;;;;;5055176;28;20452;-87
2022/10/02 00:16:23;;;;;;;3.70;1.60;;;10.70;99.90;;;;;;5029697;28;20417;-90
2022/10/02 00:18:52;;;;;;;2.80;0.60;;;10.60;99.90;;;;;;5006327;28;20427;-88
2022/10/02 00:21:31;;;;;;;2.33;0.60;;;10.60;99.90;;;;;;5029707;28;20413;-87
2022/10/02 00:24:02;;;;;;;2.80;0.40;;;10.60;99.90;;;;;;5026227;28;20499;-89
2022/10/02 00:26:50;;;;;;;5.80;1.50;;;10.70;99.90;;;;;;5017292;28;20454;-89
2022/10/02 00:29:34;;;;;;;4.43;0.30;;;10.80;99.90;;;;;;5018025;28;20486;-87
2022/10/02 00:32:14;;;;;;;2.17;0.60;;;10.80;99.90;;;;;;5018259;28;20432;-87
2022/10/02 00:35:03;;;;;;;4.80;0.43;;;10.90;99.90;;;;;;5036037;28;20433;-88
2022/10/02 00:37:49;;;;;;;3.03;0.20;;;10.90;99.90;;;;;;5036099;28;20459;-88
2022/10/02 00:40:33;;;;;;;8.50;0.70;;;10.80;99.90;;;;;;5036450;28;20810;-89
2022/10/02 00:43:20;;;;;;;4.53;1.30;;;10.80;99.90;;;;;;5036410;28;20460;-90
2022/10/02 00:46:16;;;;;;;4.33;0.70;;;10.70;99.90;;;;;;5018359;28;20776;-86
2022/10/02 00:49:15;;;;;;;2.97;0.37;;;10.70;99.90;;;;;;5034673;28;21012;-87
2022/10/02 00:52:01;;;;;;;3.80;0.40;;;10.70;99.90;;;;;;5018098;28;20435;-86
2022/10/02 00:54:58;;;;;;;2.80;0.30;;;10.70;99.90;;;;;;5036347;28;20444;-89
2022/10/02 00:57:47;;;;;;;6.00;0.83;;;10.70;99.90;;;;;;5018591;28;20422;-89
2022/10/02 01:00:18;;;;;;;4.07;0.70;;;10.80;99.90;;;;;;5036136;28;20444;-90
2022/10/02 01:02:46;;;;;;;7.53;0.87;;;10.80;99.90;;;;;;5035905;28;20579;-89
2022/10/02 01:05:12;;;;;;;5.47;0.70;;;10.80;99.90;;;;;;5035546;28;20454;-87
2022/10/02 01:07:43;;;;;;;10.10;1.37;;;10.80;99.90;;;;;;5017981;28;20503;-88
2022/10/02 01:10:11;;;;;;;5.07;1.07;;;10.80;99.90;;;;;;5035269;28;20405;-86
2022/10/02 01:12:37;;;;;;;6.50;0.70;;;10.90;99.90;;;;;;5035561;28;20592;-89
2022/10/02 01:15:11;;;;;;;5.70;1.13;;;10.80;99.90;;;;;;5017557;28;20835;-86
2022/10/02 01:17:36;;;;;;;4.33;0.57;;;10.80;99.90;;;;;;5035509;28;20908;-88
2022/10/02 01:20:04;;;;;;;5.33;0.70;;;10.70;99.90;;;;;;5017779;28;20424;-89
2022/10/02 01:22:47;;;;;;;2.70;0.60;;;10.70;99.90;;;;;;5034188;28;20173;-88
2022/10/02 01:25:13;;;;;;;11.23;0.90;;;10.70;99.90;;;;;;5018008;28;20438;-89
2022/10/02 01:27:39;;;;;;;12.33;0.70;;;10.70;99.90;;;;;;5036344;28;20477;-89
2022/10/02 01:30:08;;;;;;;2.60;0.60;;;10.60;99.90;;;;;;5035846;28;20560;-87
2022/10/02 01:32:39;;;;;;;6.30;0.43;;;10.70;99.90;;;;;;5034971;28;20228;-88
2022/10/02 01:35:06;;;;;;;3.60;0.50;;;10.70;99.90;;;;;;5034954;28;20413;-87
2022/10/02 01:37:35;;;;;;;3.50;1.13;;;10.70;99.90;;;;;;5034573;28;20950;-87
2022/10/02 01:40:31;;;;;;;1.90;0.20;;;10.70;99.90;;;;;;5034429;28;20797;-87
2022/10/02 01:43:02;;;;;;;2.07;0.40;;;10.80;99.90;;;;;;5034763;28;20435;-86
2022/10/02 01:45:54;;;;;;;6.83;0.57;;;10.70;99.90;;;;;;5034605;28;20479;-89
2022/10/02 01:48:37;;;;;;;2.40;0.60;;;10.70;99.90;;;;;;5016840;28;20560;-88
2022/10/02 01:51:19;;;;;;;5.10;0.30;;;10.70;99.90;;;;;;5034516;28;20767;-89
2022/10/02 01:53:48;;;;;;;3.30;0.60;;;10.70;99.90;;;;;;5034129;28;20413;-87
2022/10/02 01:56:51;;;;;;;3.80;0.57;;;10.80;99.90;;;;;;5034563;28;20427;-88
2022/10/02 01:59:37;;;;;;;4.17;0.87;;;10.80;99.90;;;;;;5034330;28;20417;-87
2022/10/02 02:02:28;;;;;;;6.10;0.70;;;10.90;99.90;;;;;;5016657;28;20427;-86
2022/10/02 02:04:59;;;;;;;1.43;0.57;;;11.00;99.90;;;;;;5034150;28;20505;-88
2022/10/02 02:07:34;;;;;;;3.47;0.47;;;10.90;99.90;;;;;;5034099;28;20461;-88
2022/10/02 02:10:23;;;;;;;6.90;1.23;;;10.90;99.90;;;;;;5033685;28;20416;-87
2022/10/02 02:13:02;;;;;;;5.10;0.60;;;11.00;99.90;;;;;;5016326;28;20417;-88
2022/10/02 02:15:37;;;;;;;2.83;0.60;;;11.00;99.90;;;;;;5034229;28;20488;-88
2022/10/02 02:18:32;;;;;;;6.40;0.73;;;11.00;99.90;;;;;;5034056;28;20424;-89
2022/10/02 02:21:04;;;;;;;2.30;0.30;;;11.10;99.90;;;;;;4972965;28;20417;-88
2022/10/02 02:23:34;;;;;;;5.97;1.00;;;11.10;99.90;;;;;;5031721;28;20451;-89
2022/10/02 02:26:05;;;;;;;4.10;1.17;;;11.10;99.90;;;;;;5034210;28;20405;-86
2022/10/02 02:28:34;;;;;;;3.57;0.70;;;11.10;99.90;;;;;;5033840;28;20877;-88
2022/10/02 02:31:02;;;;;;;1.67;0.40;;;11.10;99.90;;;;;;5033825;28;20419;-88
2022/10/02 02:33:38;;;;;;;1.47;0.50;;;11.10;99.90;;;;;;5033413;28;20836;-87
2022/10/02 02:36:12;;;;;;;3.30;0.67;;;11.10;99.90;;;;;;5033837;28;20412;-87
2022/10/02 02:38:48;;;;;;;1.70;0.30;;;11.10;99.90;;;;;;5033151;28;20501;-86
2022/10/02 02:41:22;;;;;;;2.33;0.57;;;11.10;99.90;;;;;;5033671;28;20418;-88
2022/10/02 02:43:55;;;;;;;4.20;0.73;;;11.10;99.90;;;;;;5033884;28;20505;-87
2022/10/02 02:46:32;;;;;;;1.60;0.20;;;11.10;99.90;;;;;;5033574;28;20413;-88
2022/10/02 02:49:08;;;;;;;3.13;0.50;;;11.10;99.90;;;;;;5016055;28;20473;-89
2022/10/02 02:51:39;;;;;;;3.07;0.40;;;11.00;99.90;;;;;;5034452;28;20462;-90
2022/10/02 02:54:22;;;;;;;1.97;0.50;;;11.00;99.90;;;;;;5033826;28;20416;-89
2022/10/02 02:56:50;;;;;;;1.93;0.30;;;10.90;99.90;;;;;;5016583;28;20566;-88
2022/10/02 02:59:18;;;;;;;2.53;0.73;;;10.80;99.90;;;;;;5033283;28;20424;-89
2022/10/02 03:01:43;;;;;;;8.47;0.60;;;10.80;99.90;;;;;;5032205;28;20424;-88
2022/10/02 03:04:13;;;;;;;5.60;1.37;;;10.70;99.90;;;;;;5032001;28;20761;-89
2022/10/02 03:06:42;;;;;;;1.17;0.30;;;10.50;99.90;;;;;;5015524;28;20681;-89
2022/10/02 03:09:13;;;;;;;2.73;0.63;;;10.50;99.90;;;;;;5032646;28;20888;-87
2022/10/02 03:11:50;;;;;;;1.70;0.20;;;10.40;99.90;;;;;;5015438;28;20409;-88
2022/10/02 03:14:56;;;;;;;4.87;0.23;;;10.40;99.90;;;;;;5032914;28;20416;-88
2022/10/02 03:17:42;;;;;;;3.30;0.27;;;10.40;99.90;;;;;;5013932;28;20939;-88
2022/10/02 03:20:16;;;;;;;0.90;0.40;;;10.50;99.90;;;;;;5032878;28;20404;-88
2022/10/02 03:22:58;;;;;;;2.70;0.40;;;10.50;99.90;;;;;;5032487;28;20445;-87
2022/10/02 03:25:35;;;;;;;3.67;0.20;;;10.50;99.90;;;;;;5032974;28;20435;-88
2022/10/02 03:28:22;;;;;;;4.00;0.60;;;10.50;99.90;;;;;;5032842;28;20460;-88
2022/10/02 03:30:50;;;;;;;3.10;0.67;;;10.50;99.90;;;;;;5032867;28;20407;-88
2022/10/02 03:33:16;;;;;;;2.20;0.77;;;10.60;99.90;;;;;;5032504;28;20525;-88
2022/10/02 03:35:43;;;;;;;3.43;0.20;;;10.60;99.90;;;;;;5032803;28;20413;-88
2022/10/02 03:38:13;;;;;;;7.10;0.57;;;10.60;99.90;;;;;;5042376;28;20587;-88
2022/10/02 03:40:39;;;;;;;2.30;0.53;;;10.60;99.90;;;;;;5014798;28;21070;-87
2022/10/02 03:43:05;;;;;;;5.67;0.20;;;10.60;99.90;;;;;;5047896;28;20547;-87
2022/10/02 03:45:31;;;;;;;5.67;1.00;;;10.60;99.90;;;;;;5032037;28;20427;-88
2022/10/02 03:47:57;;;;;;;4.53;0.33;;;10.60;99.90;;;;;;5015113;28;20469;-87
2022/10/02 03:50:22;;;;;;;5.83;0.37;;;10.70;99.90;;;;;;5032907;28;20643;-87
2022/10/02 03:52:50;;;;;;;6.13;0.77;;;10.70;99.90;;;;;;5014567;28;20529;-88
2022/10/02 03:55:32;;;;;;;4.50;0.53;;;10.60;99.90;;;;;;5032782;28;20180;-86
2022/10/02 03:58:02;;;;;;;3.77;0.60;;;10.60;99.90;;;;;;5032823;28;20430;-88
2022/10/02 04:00:37;;;;;;;1.67;0.40;;;10.50;99.90;;;;;;5032524;28;20409;-87
2022/10/02 04:03:19;;;;;;;3.77;0.50;;;10.40;99.90;;;;;;5047869;28;20949;-87
2022/10/02 04:05:54;;;;;;;1.90;0.70;;;10.20;99.90;;;;;;5032086;28;20421;-88
2022/10/02 04:08:26;;;;;;;1.60;0.30;;;10.10;99.90;;;;;;5031584;28;20564;-88
2022/10/02 04:10:59;;;;;;;3.17;0.73;;;10.00;99.90;;;;;;5032174;28;20417;-88
2022/10/02 04:13:36;;;;;;;1.83;0.30;;;9.90;99.90;;;;;;5032365;28;20416;-87
2022/10/02 04:16:10;;;;;;;2.70;0.27;;;9.90;99.90;;;;;;5031431;28;20409;-87
2022/10/02 04:18:39;;;;;;;4.30;0.97;;;10.00;99.90;;;;;;5032332;28;20405;-88
2022/10/02 04:21:19;;;;;;;1.30;0.70;;;9.90;99.90;;;;;;5032222;28;20931;-88
2022/10/02 04:23:54;;;;;;;1.27;0.40;;;9.80;99.90;;;;;;5032503;28;20769;-91
2022/10/02 04:26:28;;;;;;;5.80;0.33;;;9.80;99.90;;;;;;5015394;28;20411;-89
2022/10/02 04:29:00;;;;;;;0.60;0.30;;;9.70;99.90;;;;;;5032339;28;20483;-87
2022/10/02 04:31:27;;;;;;;2.60;0.43;;;9.70;99.90;;;;;;5014984;28;20425;-89
2022/10/02 04:33:57;;;;;;;3.37;0.73;;;9.80;99.90;;;;;;5031333;28;20474;-88
2022/10/02 04:36:43;;;;;;;2.50;0.53;;;9.70;99.90;;;;;;5014818;28;21014;-89
2022/10/02 04:39:28;;;;;;;2.10;0.60;;;9.70;99.90;;;;;;5032181;28;20948;-89
2022/10/02 04:42:15;;;;;;;6.93;0.97;;;9.80;99.90;;;;;;5032481;28;20421;-91
2022/10/02 04:45:11;;;;;;;2.33;0.30;;;9.80;99.90;;;;;;5033964;28;20434;-91
2022/10/02 04:47:51;;;;;;;4.10;0.90;;;9.70;99.90;;;;;;5016377;28;20480;-91
2022/10/02 04:50:42;;;;;;;0.60;0.23;;;9.60;99.90;;;;;;5017022;28;20425;-90
2022/10/02 04:53:54;;;;;;;4.90;0.60;;;9.50;99.90;;;;;;5015778;28;20526;-91
2022/10/02 04:56:36;;;;;;;1.43;0.40;;;9.50;99.90;;;;;;5033260;28;20441;-91
2022/10/02 04:59:38;;;;;;;2.50;0.37;;;9.60;99.90;;;;;;5019122;28;20911;-90
2022/10/02 05:02:17;;;;;;;1.70;0.57;;;9.50;99.90;;;;;;5036888;28;20422;-91
2022/10/02 05:05:01;;;;;;;2.43;0.53;;;9.60;99.90;;;;;;5037898;28;20496;-90
2022/10/02 05:07:52;;;;;;;3.70;0.93;;;9.50;99.90;;;;;;5036333;28;20474;-86
2022/10/02 05:10:17;;;;;;;3.87;1.20;;;9.50;99.90;;;;;;5036672;28;20926;-89
2022/10/02 05:12:52;;;;;;;3.47;0.80;;;9.60;99.90;;;;;;5018364;28;20496;-89
2022/10/02 05:15:31;;;;;;;2.43;0.53;;;9.60;99.90;;;;;;5035630;28;20172;-85
2022/10/02 05:18:05;;;;;;;2.50;0.47;;;9.80;99.90;;;;;;5035985;28;20765;-86
2022/10/02 05:21:03;;;;;;;2.40;1.07;;;9.80;99.90;;;;;;5036505;28;20419;-89
2022/10/02 05:24:01;;;;;;;6.37;1.13;;;9.80;99.90;;;;;;5018411;28;20435;-87
2022/10/02 05:26:42;;;;;;;7.73;1.07;;;9.90;99.90;;;;;;5005233;28;20413;-87
2022/10/02 05:29:28;;;;;;;2.27;0.97;;;9.80;99.90;;;;;;5017452;28;20469;-85
2022/10/02 05:32:31;;;;;;;1.67;0.63;;;9.90;99.90;;;;;;5035471;28;20771;-86
2022/10/02 05:34:56;;;;;;;5.67;1.30;;;9.90;99.90;;;;;;5035340;28;20460;-90
2022/10/02 05:37:51;;;;;;;4.60;1.47;;;9.90;99.90;;;;;;5035027;28;20419;-86
2022/10/02 05:40:27;;;;;;;9.70;1.27;;;9.90;99.90;;;;;;5038817;28;20168;-87
2022/10/02 05:43:11;;;;;;;1.87;1.07;;;9.90;99.90;;;;;;5042079;28;20468;-86
2022/10/02 05:45:42;;;;;;;3.33;1.23;;;9.90;99.90;;;;;;5060032;28;20391;-87
2022/10/02 05:48:32;;;;;;;2.73;0.83;;;10.00;99.90;;;;;;5042376;28;20458;-89
2022/10/02 05:51:06;;;;;;;3.63;1.70;;;10.20;99.90;;;;;;5053411;28;20446;-86
2022/10/02 05:53:35;;;;;;;2.30;1.47;;;10.20;99.90;;;;;;5049616;28;20422;-90
2022/10/02 05:56:21;;;;;;;5.90;1.30;;;10.20;99.90;;;;;;5030801;28;20418;-90
2022/10/02 05:58:50;;;;;;;7.30;1.70;;;10.30;99.90;;;;;;5023396;28;20414;-91
2022/10/02 06:01:27;;;;;;;7.67;1.30;;;10.40;99.90;;;;;;5017721;28;20426;-89
2022/10/02 06:04:34;;;;;;;4.13;1.07;;;10.50;99.90;;;;;;5035839;28;20412;-91
2022/10/02 06:07:06;;;;;;;4.57;1.53;;;10.60;99.90;;;;;;5034943;28;20435;-85
2022/10/02 06:09:45;;;;;;;7.60;1.60;;;10.80;99.90;;;;;;5034800;28;20427;-87
2022/10/02 06:12:25;;;;;;;3.87;1.10;;;10.90;99.90;;;;;;5035274;28;20407;-86
2022/10/02 06:15:06;;;;;;;8.33;2.13;;;10.90;99.90;;;;;;5034594;28;20801;-85
2022/10/02 06:17:44;;;;;;;4.00;1.40;;;11.00;99.90;;;;;;5034556;28;20496;-87
2022/10/02 06:20:36;;;;;;;5.07;2.10;;;11.10;99.90;;;;;;5034294;28;20417;-86
2022/10/02 06:23:25;;;;;;;7.20;1.40;;;11.10;99.90;;;;;;5016319;28;20430;-87
2022/10/02 06:26:05;;;;;;;5.20;1.80;;;11.20;99.90;;;;;;5034322;28;20473;-87
2022/10/02 06:28:39;;;;;;;3.70;1.70;;;11.20;99.90;;;;;;5034176;28;20478;-87
2022/10/02 06:31:14;;;;;;;5.00;1.87;;;11.20;99.90;;;;;;5016414;28;20516;-87
2022/10/02 06:33:40;;;;;;;5.37;2.27;;;11.20;99.90;;;;;;5032743;28;20471;-85
2022/10/02 06:36:24;;;;;;;3.73;0.90;;;11.30;99.90;;;;;;5016479;28;20435;-86
2022/10/02 06:39:09;;;;;;;4.57;1.37;;;11.20;99.90;;;;;;5015997;28;20637;-87
2022/10/02 06:42:04;;;;;;;4.80;0.90;;;11.20;99.90;;;;;;5033992;28;20423;-86
2022/10/02 06:45:05;;;;;;;5.03;0.80;;;11.20;99.90;;;;;;5033830;28;20410;-88
2022/10/02 06:47:36;;;;;;;2.67;0.40;;;11.20;99.90;;;;;;5016181;28;20514;-86
2022/10/02 06:50:29;;;;;;;1.73;0.50;;;11.20;99.90;;;;;;5033823;28;20410;-87
2022/10/02 06:53:43;;;;;;;4.70;0.57;;;11.20;99.90;;;;;;5015631;28;20415;-86
2022/10/02 06:56:26;;;;;;;0.50;0.20;;;11.20;99.90;;;;;;5012514;28;20931;-87
2022/10/02 06:59:34;;;;;;;1.60;0.20;;;11.20;99.90;;;;;;5033534;28;20521;-87
2022/10/02 07:02:22;;;;;;;0.90;0.30;;;11.20;99.90;;;;;;5015899;28;20552;-89
2022/10/02 07:05:26;;;;;;;3.30;0.97;;;11.20;99.90;;;;;;5033693;28;20427;-91
2022/10/02 07:08:15;;;;;;;1.10;0.30;;;11.20;99.90;;;;;;5033785;28;20458;-89
2022/10/02 07:11:00;;;;;;;1.23;0.30;;;11.30;99.90;;;;;;5034520;28;20434;-85
2022/10/02 07:14:03;;;;;;;2.67;0.83;;;11.30;99.90;;;;;;5016267;28;20465;-85
2022/10/02 07:17:01;;;;;;;1.23;0.20;;;11.50;99.90;;;;;;5015345;28;20416;-85
2022/10/02 07:20:06;;;;;;;2.20;0.57;;;12.10;99.90;;;;;;5034176;28;20396;-88
2022/10/02 07:23:08;;;;;;;1.30;0.50;;;13.10;99.90;;;;;;5033605;28;20905;-88
2022/10/02 07:26:07;;;;;;;1.20;0.53;;;12.90;99.90;;;;;;5033973;28;20920;-89
2022/10/02 07:28:48;;;;;;;1.97;0.53;;;15.10;99.90;;;;;;5033876;28;20499;-87
2022/10/02 07:31:51;;;;;;;3.10;0.60;;;16.70;1.00;;;;;;5033880;28;20407;-91
2022/10/02 07:34:43;;;;;;;2.87;0.83;;;16.30;1.00;;;;;;5033964;28;20432;-90
2022/10/02 07:37:16;;;;;;;4.93;0.90;;;18.60;99.90;;;;;;5034152;28;20404;-90
2022/10/02 07:40:08;;;;;;;3.13;0.50;;;20.10;1.00;;;;;;5033350;28;20417;-83
2022/10/02 07:43:12;;;;;;;3.90;0.60;;;20.70;1.00;;;;;;5032839;28;20412;-86
2022/10/02 07:45:42;;;;;;;2.20;0.53;;;19.20;1.00;;;;;;5032850;28;20555;-85
2022/10/02 07:48:34;;;;;;;1.33;0.30;;;19.30;1.00;;;;;;5014956;28;20518;-85
2022/10/02 07:51:45;;;;;;;2.00;0.20;;;16.80;1.00;;;;;;5032795;28;20423;-85
2022/10/02 07:54:03;;;;;;;2.17;0.30;;;15.50;99.90;;;;;;5032273;28;20559;-84
2022/10/02 07:56:30;;;;;;;1.50;0.30;;;15.50;99.90;;;;;;5015219;28;20411;-87
2022/10/02 07:59:03;;;;;;;1.43;0.30;;;14.90;99.90;;;;;;5015149;28;20448;-84
2022/10/02 08:01:34;;;;;;;0.87;0.20;;;14.30;99.90;;;;;;5035395;28;20480;-86
2022/10/02 08:04:02;;;;;;;1.37;0.50;;;13.70;99.90;;;;;;5017351;28;20427;-85
2022/10/02 08:06:28;;;;;;;2.07;0.40;;;13.30;99.90;;;;;;5032863;28;20419;-83
2022/10/02 08:09:14;;;;;;;1.40;0.37;;;13.00;99.90;;;;;;5032583;28;20618;-88
2022/10/02 08:11:47;;;;;;;6.63;0.57;;;12.80;99.90;;;;;;5033040;28;20514;-86
2022/10/02 08:14:18;;;;;;;3.70;0.43;;;12.80;99.90;;;;;;5032606;28;20412;-85
2022/10/02 08:16:48;;;;;;;2.73;0.37;;;12.70;99.90;;;;;;5032687;28;20438;-85
2022/10/02 08:19:17;;;;;;;1.23;0.47;;;12.70;99.90;;;;;;5032551;28;20840;-86
2022/10/02 08:21:49;;;;;;;2.67;0.30;;;12.70;99.90;;;;;;5032368;28;20952;-87
2022/10/02 08:24:29;;;;;;;2.33;0.60;;;12.80;99.90;;;;;;5029036;28;20553;-87
2022/10/02 08:27:03;;;;;;;3.57;0.70;;;12.90;99.90;;;;;;5032781;28;20448;-85
2022/10/02 08:29:42;;;;;;;2.80;0.53;;;13.40;99.90;;;;;;5012772;28;20465;-88
2022/10/02 08:32:12;;;;;;;3.90;0.60;;;13.50;99.90;;;;;;5014251;28;20455;-88
2022/10/02 08:34:39;;;;;;;4.60;0.67;;;17.00;99.90;;;;;;4999258;28;20456;-89
2022/10/02 08:37:41;;;;;;;5.20;0.37;;;19.40;1.00;;;;;;5017147;28;20406;-89
2022/10/02 08:40:38;;;;;;;1.90;0.40;;;19.20;99.90;;;;;;5016765;28;20420;-89
2022/10/02 08:43:48;;;;;;;2.97;0.37;;;20.20;99.90;;;;;;5016657;28;20425;-82
2022/10/02 08:46:35;;;;;;;3.43;0.30;;;20.30;1.00;;;;;;4979048;28;20440;-88
2022/10/02 08:49:46;;;;;;;1.03;0.23;;;21.70;1.00;;;;;;5016025;28;20512;-86
2022/10/02 08:52:45;;;;;;;1.77;0.20;;;20.30;1.00;;;;;;5015708;28;20517;-86
2022/10/02 08:55:26;;;;;;;1.50;0.20;;;17.60;99.90;;;;;;5016668;28;20406;-89
2022/10/02 08:58:31;;;;;;;2.37;0.50;;;15.80;99.90;;;;;;5015696;28;20447;-86
2022/10/02 09:01:19;;;;;;;3.10;0.33;;;15.10;99.90;;;;;;5026032;28;20424;-91
2022/10/02 09:03:59;;;;;;;1.73;0.43;;;14.80;99.90;;;;;;5037164;28;20458;-92
2022/10/02 09:06:30;;;;;;;5.20;0.60;;;14.40;99.90;;;;;;5037395;28;20439;-85
2022/10/02 09:09:06;;;;;;;4.63;0.50;;;14.20;99.90;;;;;;5037893;28;20460;-86
2022/10/02 09:12:05;;;;;;;2.90;0.80;;;13.90;99.90;;;;;;5036781;28;20403;-89
2022/10/02 09:14:42;;;;;;;3.70;0.40;;;13.80;99.90;;;;;;5019674;28;20435;-89
2022/10/02 09:17:23;;;;;;;4.30;0.77;;;13.90;99.90;;;;;;5019527;28;20970;-89
2022/10/02 09:20:03;;;;;;;8.70;0.80;;;14.00;99.90;;;;;;5036471;28;20415;-86
2022/10/02 09:23:17;;;;;;;3.73;0.40;;;13.90;99.90;;;;;;5017755;28;20462;-84
2022/10/02 09:25:51;;;;;;;2.70;0.53;;;13.90;99.90;;;;;;5035172;28;20418;-91
2022/10/02 09:28:41;;;;;;;4.60;0.30;;;13.80;99.90;;;;;;5035476;28;20469;-84
2022/10/02 09:31:40;;;;;;;3.03;0.20;;;13.70;99.90;;;;;;5035585;28;20917;-84
2022/10/02 09:34:23;;;;;;;3.43;0.27;;;13.60;99.90;;;;;;5035541;28;20473;-84
2022/10/02 09:37:18;;;;;;;5.87;0.77;;;13.60;99.90;;;;;;5017381;28;20446;-88
2022/10/02 09:40:17;;;;;;;4.90;0.97;;;13.60;99.90;;;;;;5034678;28;20476;-88
2022/10/02 09:42:58;;;;;;;2.77;0.53;;;13.60;99.90;;;;;;5025090;28;20427;-90
2022/10/02 09:45:35;;;;;;;2.70;0.40;;;13.60;99.90;;;;;;5035380;28;20432;-84
2022/10/02 09:48:47;;;;;;;1.93;0.30;;;13.50;99.90;;;;;;5035278;28;20463;-84
2022/10/02 09:51:22;;;;;;;1.00;0.30;;;13.40;99.90;;;;;;5035462;28;20769;-88
2022/10/02 09:54:16;;;;;;;5.07;0.80;;;13.50;99.90;;;;;;5017257;28;20419;-86
2022/10/02 09:57:16;;;;;;;1.60;0.30;;;13.40;99.90;;;;;;5035931;28;20446;-87
2022/10/02 10:00:16;;;;;;;8.00;0.90;;;13.40;99.90;;;;;;5033459;28;20572;-85
2022/10/02 10:03:13;;;;;;;3.27;0.30;;;13.20;99.90;;;;;;5027233;28;20427;-84
2022/10/02 10:05:52;;;;;;;1.23;0.20;;;13.20;99.90;;;;;;4997004;28;20940;-86
2022/10/02 10:08:30;;;;;;;0.80;0.30;;;13.40;99.90;;;;;;5014803;28;20509;-92
2022/10/02 10:11:15;;;;;;;2.40;0.20;;;13.90;99.90;;;;;;5015337;28;20417;-84
2022/10/02 10:14:13;;;;;;;1.33;0.27;;;14.30;99.90;;;;;;5014356;28;20487;-85
2022/10/02 10:17:12;;;;;;;4.77;0.30;;;14.00;99.90;;;;;;5014922;28;20417;-88
2022/10/02 10:20:02;;;;;;;3.97;0.53;;;13.70;99.90;;;;;;5014225;28;20507;-84
2022/10/02 10:23:12;;;;;;;2.80;0.50;;;13.70;99.90;;;;;;5015103;28;20493;-92
2022/10/02 10:25:53;;;;;;;2.33;0.43;;;16.70;99.90;;;;;;4974099;28;20479;-91
2022/10/02 10:28:44;;;;;;;2.67;0.30;;;17.60;1.00;;;;;;4957339;28;20475;-86
2022/10/02 10:31:47;;;;;;;3.00;0.40;;;17.50;1.00;;;;;;5005826;28;20925;-90
2022/10/02 10:34:35;;;;;;;2.93;0.30;;;17.90;1.00;;;;;;5014324;28;20422;-88
2022/10/02 10:40:49;;;;;;;1.83;0.30;;;17.80;6.80;;;;;;5016103;28;20405;-89
2022/10/02 10:44:11;;;;;;;1.70;0.40;;;19.20;99.90;;;;;;5034000;28;20425;-89
2022/10/02 10:46:57;;;;;;;1.03;0.30;;;20.70;1.00;;;;;;5033755;28;20442;-87
2022/10/02 10:49:54;;;;;;;2.30;0.30;;;21.80;1.00;;;;;;5033389;28;20508;-89
2022/10/02 10:53:04;;;;;;;3.80;0.20;;;21.60;1.00;;;;;;5033483;28;20409;-84
2022/10/02 10:55:56;;;;;;;2.87;0.33;;;21.90;1.00;;;;;;5028059;28;20945;-85
2022/10/02 10:59:00;;;;;;;2.43;0.30;;;22.00;99.90;;;;;;5033408;28;20421;-86
2022/10/02 11:01:58;;;;;;;1.30;0.23;;;21.70;1.00;;;;;;5011928;28;20457;-85
2022/10/02 11:04:43;;;;;;;2.83;0.40;;;22.00;99.90;;;;;;5033546;28;20929;-88
2022/10/02 11:07:23;;;;;;;1.80;0.20;;;22.10;1.00;;;;;;5032925;28;20413;-86
2022/10/02 11:10:06;;;;;;;3.83;0.60;;;22.00;99.90;;;;;;5033209;28;20478;-84
2022/10/02 11:13:02;;;;;;;1.50;0.40;;;21.80;1.00;;;;;;5033204;28;20412;-86
2022/10/02 11:15:39;;;;;;;1.30;0.30;;;22.10;1.00;;;;;;5033858;28;20453;-87
2022/10/02 11:18:37;;;;;;;1.70;0.37;;;22.70;99.90;;;;;;5033986;28;20409;-82
2022/10/02 11:21:14;;;;;;;3.47;0.40;;;23.00;99.90;;;;;;5035317;28;20413;-85
2022/10/02 11:24:25;;;;;;;1.73;0.53;;;22.70;99.90;;;;;;5026707;28;20420;-82
2022/10/02 11:27:19;;;;;;;3.10;0.70;;;23.70;99.90;;;;;;4995519;28;20486;-82
2022/10/02 11:30:03;;;;;;;2.03;0.77;;;23.90;99.90;;;;;;5043748;28;20463;-81
2022/10/02 11:33:11;;;;;;;5.43;0.67;;;23.40;99.90;;;;;;5028266;28;20549;-84
2022/10/02 11:36:15;;;;;;;2.37;0.50;;;23.40;99.90;;;;;;5014926;28;20547;-87
2022/10/02 11:39:03;;;;;;;2.63;0.30;;;23.10;99.90;;;;;;4983152;28;20434;-84
2022/10/02 11:41:42;;;;;;;2.33;0.30;;;23.40;99.90;;;;;;5006813;28;20945;-86
2022/10/02 11:44:48;;;;;;;3.83;0.33;;;21.30;99.90;;;;;;5000959;28;20402;-88
2022/10/02 11:47:50;;;;;;;4.30;1.00;;;21.40;99.90;;;;;;5008038;28;20445;-88
2022/10/02 11:50:41;;;;;;;5.83;0.50;;;19.60;1.00;;;;;;4992779;28;20504;-88
2022/10/02 11:53:34;;;;;;;5.23;0.70;;;18.60;99.90;;;;;;5003744;28;20796;-87
2022/10/02 11:56:21;;;;;;;4.40;0.50;;;19.60;1.00;;;;;;4985273;28;20429;-86
2022/10/02 11:58:55;;;;;;;2.10;0.33;;;20.20;1.00;;;;;;5002937;28;20452;-87
2022/10/02 12:01:36;;;;;;;2.40;0.40;;;18.80;99.90;;;;;;4984423;28;20460;-84
2022/10/02 12:04:39;;;;;;;2.63;0.37;;;18.50;99.90;;;;;;5001081;28;20418;-87
2022/10/02 12:07:30;;;;;;;3.07;0.67;;;19.50;99.90;;;;;;5001128;28;20894;-86
2022/10/02 12:10:19;;;;;;;3.77;0.50;;;19.50;1.00;;;;;;4993659;28;20422;-84
2022/10/02 12:13:06;;;;;;;2.60;0.53;;;20.50;99.90;;;;;;5008441;28;20997;-83
2022/10/02 12:15:55;;;;;;;2.50;0.40;;;21.10;99.90;;;;;;5010306;28;20488;-87
2022/10/02 12:18:48;;;;;;;3.30;0.50;;;21.30;99.90;;;;;;5005400;28;20418;-87
2022/10/02 12:27:50;;;;;;;1.93;0.60;;;20.70;99.90;;;;;;5008984;28;20457;-86
2022/10/02 12:30:23;;;;;;;4.13;0.30;;;20.30;99.90;;;;;;5007023;28;20418;-85
2022/10/02 12:33:18;;;;;;;1.43;0.20;;;20.60;1.00;;;;;;5005643;28;20451;-86
2022/10/02 12:36:33;;;;;;;4.40;0.57;;;19.70;1.00;;;;;;5007593;28;20422;-85
2022/10/02 12:39:15;;;;;;;3.60;0.90;;;18.80;1.00;;;;;;4934531;28;20473;-85
2022/10/02 12:42:05;;;;;;;3.97;0.90;;;18.30;1.00;;;;;;5003820;28;20464;-85
2022/10/02 12:44:50;;;;;;;4.50;0.57;;;18.40;1.00;;;;;;5005992;28;20468;-84
2022/10/02 12:47:43;;;;;;;3.73;0.80;;;18.50;55.00;;;;;;4988820;28;20426;-84
2022/10/02 12:50:36;;;;;;;2.83;0.37;;;18.40;99.90;;;;;;4993825;28;20468;-85
2022/10/02 12:53:54;;;;;;;2.83;0.60;;;17.60;30.10;;;;;;5006235;28;20415;-84
2022/10/02 12:56:44;;;;;;;5.40;0.80;;;16.80;1.00;;;;;;4893892;29;20477;-84
2022/10/02 12:59:41;;;;;;;3.40;0.40;;;16.30;98.50;;;;;;5007762;28;20425;-84
2022/10/02 13:02:36;;;;;;;2.43;0.33;;;16.20;99.90;;;;;;5006947;28;20407;-86
2022/10/02 13:05:30;;;;;;;4.70;0.40;;;16.70;99.90;;;;;;5007117;28;20422;-85
2022/10/02 13:08:04;;;;;;;3.63;0.50;;;17.10;1.00;;;;;;4957195;28;20467;-84
2022/10/02 13:10:41;;;;;;;2.80;0.43;;;17.30;99.90;;;;;;4988695;28;20431;-85
2022/10/02 13:13:24;;;;;;;2.33;0.30;;;17.40;1.00;;;;;;5004342;28;20448;-85
2022/10/02 13:16:24;;;;;;;3.27;0.77;;;17.50;1.00;;;;;;4989218;28;20465;-87
2022/10/02 13:18:51;;;;;;;3.90;0.50;;;17.50;1.00;;;;;;5006000;28;20827;-86
2022/10/02 13:21:46;;;;;;;3.03;0.70;;;17.30;54.60;;;;;;5005322;28;20510;-85
2022/10/02 13:24:38;;;;;;;5.63;0.73;;;17.50;1.00;;;;;;5005974;28;20417;-84
2022/10/02 13:27:33;;;;;;;3.23;0.80;;;17.70;1.00;;;;;;5005722;28;20430;-85
2022/10/02 13:30:16;;;;;;;7.57;0.60;;;17.70;99.90;;;;;;5006027;28;20434;-86
2022/10/02 13:32:50;;;;;;;3.70;0.50;;;17.60;99.90;;;;;;5005460;28;20467;-85
2022/10/02 13:35:41;;;;;;;3.83;0.50;;;18.10;99.90;;;;;;5004490;28;20426;-86
2022/10/02 13:38:18;;;;;;;3.50;0.60;;;18.00;1.00;;;;;;5001863;28;20461;-88
2022/10/02 13:41:04;;;;;;;6.23;0.47;;;18.20;1.00;;;;;;4986268;28;20419;-87
2022/10/02 13:43:39;;;;;;;4.60;0.70;;;18.20;99.90;;;;;;5009577;28;20458;-87
2022/10/02 13:46:28;;;;;;;6.03;0.40;;;18.40;99.90;;;;;;5014296;28;20414;-87
2022/10/02 13:49:17;;;;;;;7.43;0.57;;;18.00;1.00;;;;;;4997004;28;20474;-88
2022/10/02 13:52:09;;;;;;;6.03;0.93;;;17.90;1.00;;;;;;4996640;28;20414;-87
2022/10/02 13:55:06;;;;;;;3.57;0.60;;;17.90;1.00;;;;;;5013377;28;20415;-86
2022/10/02 13:58:04;;;;;;;4.47;0.60;;;18.00;1.00;;;;;;4992530;28;20442;-87
2022/10/02 14:00:57;;;;;;;5.00;0.40;;;17.80;99.90;;;;;;5022656;28;20934;-85
2022/10/02 14:03:57;;;;;;;4.60;0.50;;;17.80;1.00;;;;;;5013922;28;20417;-86
2022/10/02 14:06:36;;;;;;;6.23;0.70;;;17.60;1.00;;;;;;4985439;28;20484;-85
2022/10/02 14:09:33;;;;;;;2.73;0.57;;;17.50;73.10;;;;;;5013812;28;20497;-85
2022/10/02 14:12:45;;;;;;;5.93;0.63;;;16.90;1.00;;;;;;4990295;28;20753;-86
2022/10/02 14:15:39;;;;;;;5.40;0.97;;;16.60;99.90;;;;;;5013431;28;20758;-85
2022/10/02 14:18:25;;;;;;;12.83;1.33;;;16.30;99.90;;;;;;5013739;28;20491;-86
2022/10/02 14:21:06;;;;;;;5.57;1.00;;;16.30;99.90;;;;;;5012418;28;21005;-84
2022/10/02 14:23:57;;;;;;;8.43;0.63;;;16.50;30.60;;;;;;5013793;28;20451;-85
2022/10/02 14:26:41;;;;;;;9.80;0.80;;;16.70;95.20;;;;;;5012219;28;20761;-85